Lorraine — A8IZ3 — position and weather

sailwx.info

Track history (hours):
 
Tides and Currents Weather Stations Pressure Air Temp Water Temp Dewpoint Dewpoint Depression Visibility Wind Speed Wind Dir Waves Ship Positions

Lorraine

Last reported at 2016-May-26 04:22 UTC. Time now 2016-May-26 04:40 UTC.
Position N 34°56' E 120°07'.

Length 221 m; draft 11.3 m.

Type: Ship. MMSI: 636012905.

Date/timePositionNaut miles runAvg speedWind from/ knotsBaromVisibWave heightAir tempDewpointWater temp
2016-May-26 04:22N 34°56' E 120°07'151 3.3
2016-May-24 07:06N 36°35' E 122°27'1320.0
2016-May-24 06:28N 36°41' E 122°41'1617.2
2016-May-24 05:34N 36°56' E 122°46'2120.2
2016-May-24 04:33N 37°12' E 123°03'23 3.8
2016-May-23 22:30N 37°35' E 123°00'88 4.6
2016-May-23 03:33N 38°44' E 121°51'1715.0
2016-May-23 02:27N 38°32' E 121°37'16518.5
2016-May-22 17:33N 38°54' E 118°08'1312.8
2016-May-22 16:33N 38°57' E 117°52'4 4.3
2016-May-22 15:33N 38°59' E 117°47'0 0.0
2016-May-22 14:33N 38°59' E 117°47'0 0.0
2016-May-22 13:33N 38°59' E 117°47'0 0.0
2016-May-22 12:32N 38°59' E 117°47'0 0.0
2016-May-22 11:32N 38°59' E 117°47'0 0.0
2016-May-22 10:31N 38°59' E 117°47'0 0.0
2016-May-22 09:31N 38°59' E 117°47'0 0.0
2016-May-22 08:12N 38°59' E 117°47'0 0.0
2016-May-22 07:30N 38°59' E 117°47'0 0.0
2016-May-22 06:29N 38°59' E 117°47'0 0.0
2016-May-22 05:29N 38°59' E 117°47'0 0.0
2016-May-22 04:29N 38°59' E 117°47'1 0.6
2016-May-22 03:32N 38°59' E 117°48'1110.8
2016-May-22 02:32N 38°56' E 118°01'5 5.2
2016-May-22 01:30N 38°53' E 118°06'0 0.0
2016-May-22 00:29N 38°53' E 118°06'0 0.0
2016-May-21 23:29N 38°53' E 118°06'0 0.0
2016-May-21 22:04N 38°53' E 118°06'0 0.1
2016-May-21 21:28N 38°53' E 118°06'0 0.0
2016-May-21 20:16N 38°52' E 118°06'0 0.0
2016-May-21 19:33N 38°53' E 118°06'0 0.0
2016-May-21 14:25N 38°53' E 118°06'0 0.0
2016-May-21 12:06N 38°53' E 118°06'0 0.0
2016-May-21 11:12N 38°52' E 118°06'0 0.0
2016-May-21 08:22N 38°53' E 118°06'0 0.0
2016-May-21 06:34N 38°53' E 118°06'0 0.0
2016-May-21 05:33N 38°53' E 118°06'0 0.0
2016-May-21 04:27N 38°53' E 118°06'0 0.0
2016-May-21 03:14N 38°53' E 118°06'0 0.0
2016-May-21 02:32N 38°53' E 118°06'3 2.9
2016-May-21 01:32N 38°51' E 118°09'4912.4
2016-May-20 21:33N 38°47' E 119°13'1211.9
2016-May-20 20:33N 38°47' E 119°28'1111.3
2016-May-20 19:33N 38°45' E 119°42'1111.4
2016-May-20 18:33N 38°43' E 119°56'1211.6
2016-May-20 17:33N 38°41' E 120°11'1212.1
2016-May-20 16:33N 38°40' E 120°26'1312.1
2016-May-20 15:31N 38°39' E 120°43'1111.6
2016-May-20 14:33N 38°37' E 120°56'1211.6
2016-May-20 13:33N 38°30' E 121°09'1211.7
2016-May-20 12:33N 38°24' E 121°21'1211.9
2016-May-20 11:33N 38°18' E 121°34'1212.0
2016-May-20 10:33N 38°12' E 121°48'1212.0
2016-May-20 09:33N 38°06' E 122°01'2612.3
2016-May-20 07:28N 37°53' E 122°29'1112.4
2016-May-20 06:33N 37°48' E 122°42'1212.1
2016-May-20 05:33N 37°41' E 122°55'1111.4
2016-May-20 04:33N 37°31' E 123°02'1010.4
2016-May-20 03:34N 37°21' E 123°03'1110.5
2016-May-20 02:33N 37°10' E 123°03'1010.3
2016-May-20 01:33N 37°00' E 123°05'1110.5
2016-May-20 00:32N 36°50' E 123°08'1111.1
2016-May-19 23:32N 36°39' E 123°11'1111.6
2016-May-19 22:34N 36°28' E 123°12'1211.6
2016-May-19 21:33N 36°16' E 123°14'1212.1
2016-May-19 20:33N 36°04' E 123°16'1211.8
2016-May-19 19:33N 35°52' E 123°18'1211.7
2016-May-19 18:33N 35°41' E 123°20'25911.7
2016-May-18 20:22N 31°22' E 123°22'2010.9
2016-May-18 18:33N 31°03' E 123°20'2511.5
2016-May-18 16:22N 30°38' E 123°20'2211.9
2016-May-18 14:32N 30°16' E 123°20'1211.9
2016-May-18 13:31N 30°04' E 123°20'1211.8
2016-May-18 12:29N 29°52' E 123°15'1212.0
2016-May-18 11:27N 29°41' E 123°08'1112.1
2016-May-18 10:33N 29°32' E 123°03'1312.2
2016-May-18 09:29N 29°20' E 122°56'1212.6
2016-May-18 08:33N 29°09' E 122°50'1512.1
2016-May-18 07:18N 28°56' E 122°42'32212.8
2016-May-17 06:13N 24°28' E 119°22'30311.8
2016-May-16 04:33N 22°07' E 114°30'  
Track history (hours):
 
Tides and Currents Weather Stations Pressure Air Temp Water Temp Dewpoint Dewpoint Depression Visibility Wind Speed Wind Dir Waves Ship Positions

Lorraine

Last reported at 2016-May-26 04:22 UTC. Time now 2016-May-26 04:40 UTC.
Position N 34°56' E 120°07'.

Length 221 m; draft 11.3 m.

Type: Ship. MMSI: 636012905.

Date/timePositionNaut miles runAvg speedWind from/ knotsBaromVisibWave heightAir tempDewpointWater temp
2016-May-26 04:22N 34°56' E 120°07'151 3.3
2016-May-24 07:06N 36°35' E 122°27'1320.0
2016-May-24 06:28N 36°41' E 122°41'1617.2
2016-May-24 05:34N 36°56' E 122°46'2120.2
2016-May-24 04:33N 37°12' E 123°03'23 3.8
2016-May-23 22:30N 37°35' E 123°00'88 4.6
2016-May-23 03:33N 38°44' E 121°51'1715.0
2016-May-23 02:27N 38°32' E 121°37'16518.5
2016-May-22 17:33N 38°54' E 118°08'1312.8
2016-May-22 16:33N 38°57' E 117°52'4 4.3
2016-May-22 15:33N 38°59' E 117°47'0 0.0
2016-May-22 14:33N 38°59' E 117°47'0 0.0
2016-May-22 13:33N 38°59' E 117°47'0 0.0
2016-May-22 12:32N 38°59' E 117°47'0 0.0
2016-May-22 11:32N 38°59' E 117°47'0 0.0
2016-May-22 10:31N 38°59' E 117°47'0 0.0
2016-May-22 09:31N 38°59' E 117°47'0 0.0
2016-May-22 08:12N 38°59' E 117°47'0 0.0
2016-May-22 07:30N 38°59' E 117°47'0 0.0
2016-May-22 06:29N 38°59' E 117°47'0 0.0
2016-May-22 05:29N 38°59' E 117°47'0 0.0
2016-May-22 04:29N 38°59' E 117°47'1 0.6
2016-May-22 03:32N 38°59' E 117°48'1110.8
2016-May-22 02:32N 38°56' E 118°01'5 5.2
2016-May-22 01:30N 38°53' E 118°06'0 0.0
2016-May-22 00:29N 38°53' E 118°06'0 0.0
2016-May-21 23:29N 38°53' E 118°06'0 0.0
2016-May-21 22:04N 38°53' E 118°06'0 0.1
2016-May-21 21:28N 38°53' E 118°06'0 0.0
2016-May-21 20:16N 38°52' E 118°06'0 0.0
2016-May-21 19:33N 38°53' E 118°06'0 0.0
2016-May-21 14:25N 38°53' E 118°06'0 0.0
2016-May-21 12:06N 38°53' E 118°06'0 0.0
2016-May-21 11:12N 38°52' E 118°06'0 0.0
2016-May-21 08:22N 38°53' E 118°06'0 0.0
2016-May-21 06:34N 38°53' E 118°06'0 0.0
2016-May-21 05:33N 38°53' E 118°06'0 0.0
2016-May-21 04:27N 38°53' E 118°06'0 0.0
2016-May-21 03:14N 38°53' E 118°06'0 0.0
2016-May-21 02:32N 38°53' E 118°06'3 2.9
2016-May-21 01:32N 38°51' E 118°09'4912.4
2016-May-20 21:33N 38°47' E 119°13'1211.9
2016-May-20 20:33N 38°47' E 119°28'1111.3
2016-May-20 19:33N 38°45' E 119°42'1111.4
2016-May-20 18:33N 38°43' E 119°56'1211.6
2016-May-20 17:33N 38°41' E 120°11'1212.1
2016-May-20 16:33N 38°40' E 120°26'1312.1
2016-May-20 15:31N 38°39' E 120°43'1111.6
2016-May-20 14:33N 38°37' E 120°56'1211.6
2016-May-20 13:33N 38°30' E 121°09'1211.7
2016-May-20 12:33N 38°24' E 121°21'1211.9
2016-May-20 11:33N 38°18' E 121°34'1212.0
2016-May-20 10:33N 38°12' E 121°48'1212.0
2016-May-20 09:33N 38°06' E 122°01'2612.3
2016-May-20 07:28N 37°53' E 122°29'1112.4
2016-May-20 06:33N 37°48' E 122°42'1212.1
2016-May-20 05:33N 37°41' E 122°55'1111.4
2016-May-20 04:33N 37°31' E 123°02'1010.4
2016-May-20 03:34N 37°21' E 123°03'1110.5
2016-May-20 02:33N 37°10' E 123°03'1010.3
2016-May-20 01:33N 37°00' E 123°05'1110.5
2016-May-20 00:32N 36°50' E 123°08'1111.1
2016-May-19 23:32N 36°39' E 123°11'1111.6
2016-May-19 22:34N 36°28' E 123°12'1211.6
2016-May-19 21:33N 36°16' E 123°14'1212.1
2016-May-19 20:33N 36°04' E 123°16'1211.8
2016-May-19 19:33N 35°52' E 123°18'1211.7
2016-May-19 18:33N 35°41' E 123°20'25911.7
2016-May-18 20:22N 31°22' E 123°22'2010.9
2016-May-18 18:33N 31°03' E 123°20'2511.5
2016-May-18 16:22N 30°38' E 123°20'2211.9
2016-May-18 14:32N 30°16' E 123°20'1211.9
2016-May-18 13:31N 30°04' E 123°20'1211.8
2016-May-18 12:29N 29°52' E 123°15'1212.0
2016-May-18 11:27N 29°41' E 123°08'1112.1
2016-May-18 10:33N 29°32' E 123°03'1312.2
2016-May-18 09:29N 29°20' E 122°56'1212.6
2016-May-18 08:33N 29°09' E 122°50'1512.1
2016-May-18 07:18N 28°56' E 122°42'32212.8
2016-May-17 06:13N 24°28' E 119°22'30311.8
2016-May-16 04:33N 22°07' E 114°30'  

Dump ship's entire track history